createdAt,value
2018-04-01T00:00:05.494Z,99.70
2018-04-01T00:02:31.109Z,99.76
2018-04-01T00:04:56.734Z,99.69
2018-04-01T00:07:22.355Z,99.87
2018-04-01T00:09:47.965Z,99.75
2018-04-01T00:12:13.581Z,99.65
2018-04-01T00:14:39.195Z,99.83
2018-04-01T00:17:04.817Z,99.82
2018-04-01T00:19:30.418Z,99.90
2018-04-01T00:21:56.089Z,99.88
2018-04-01T00:24:21.653Z,99.99
2018-04-01T00:26:47.290Z,100.00
2018-04-01T00:29:12.899Z,99.98
2018-04-01T00:31:38.513Z,99.91
2018-04-01T00:34:04.135Z,99.98
2018-04-01T00:36:29.738Z,99.98
2018-04-01T00:38:55.375Z,99.95
2018-04-01T00:41:20.986Z,99.94
2018-04-01T00:43:46.609Z,99.97
2018-04-01T00:46:12.212Z,99.91
2018-04-01T00:48:37.826Z,99.74
2018-04-01T00:51:03.434Z,99.77
2018-04-01T00:53:29.058Z,99.75
2018-04-01T00:55:54.665Z,99.75
2018-04-01T00:58:20.287Z,99.74
2018-04-01T01:00:52.910Z,99.92
2018-04-01T01:03:18.517Z,99.94
2018-04-01T01:05:44.124Z,100.00
2018-04-01T01:08:09.753Z,99.84
2018-04-01T01:10:35.365Z,99.85
2018-04-01T01:13:00.987Z,99.88
2018-04-01T01:15:26.598Z,99.90
2018-04-01T01:17:52.208Z,99.91
2018-04-01T01:20:17.831Z,99.68
2018-04-01T01:22:43.450Z,99.64
2018-04-01T01:25:09.071Z,99.67
2018-04-01T01:27:34.685Z,99.57
2018-04-01T01:30:00.322Z,99.46
2018-04-01T01:32:25.927Z,99.42
2018-04-01T01:34:51.550Z,99.54
2018-04-01T01:37:17.148Z,99.67
2018-04-01T01:39:42.761Z,99.56
2018-04-01T01:42:08.380Z,99.55
2018-04-01T01:44:33.992Z,99.52
2018-04-01T01:46:59.613Z,99.65
2018-04-01T01:49:25.230Z,99.68
2018-04-01T01:51:50.849Z,99.81
2018-04-01T01:54:16.461Z,99.70
2018-04-01T01:56:42.085Z,99.56
2018-04-01T01:59:07.710Z,99.46
2018-04-01T02:01:33.330Z,99.07
2018-04-01T02:03:58.955Z,98.98
2018-04-01T02:06:24.574Z,99.10
2018-04-01T02:08:50.206Z,99.00
2018-04-01T02:11:15.830Z,99.19
2018-04-01T02:13:41.437Z,99.46
2018-04-01T02:16:07.054Z,99.63
2018-04-01T02:18:32.666Z,99.65
2018-04-01T02:20:58.296Z,99.57
2018-04-01T02:23:23.910Z,99.72
2018-04-01T02:25:49.536Z,99.74
2018-04-01T02:28:15.146Z,99.91
2018-04-01T02:30:40.766Z,99.95
2018-04-01T02:33:06.385Z,100.00
2018-04-01T02:35:32.011Z,100.00
2018-04-01T02:37:57.614Z,100.00
2018-04-01T02:40:23.231Z,100.00
2018-04-01T02:42:48.833Z,100.00
2018-04-01T02:45:14.451Z,100.00
2018-04-01T02:47:40.054Z,100.00
2018-04-01T02:50:05.686Z,100.00
2018-04-01T02:52:31.294Z,100.00
2018-04-01T02:54:56.931Z,100.00
2018-04-01T02:57:22.550Z,100.00
2018-04-01T02:59:48.163Z,100.00
2018-04-01T03:02:13.782Z,100.00
2018-04-01T03:04:39.447Z,100.00
2018-04-01T03:07:05.051Z,100.00
2018-04-01T03:09:30.660Z,100.00
2018-04-01T03:11:56.289Z,100.00
2018-04-01T03:14:21.892Z,100.00
2018-04-01T03:16:47.493Z,100.00
2018-04-01T03:19:13.090Z,100.00
2018-04-01T03:21:38.703Z,100.00
2018-04-01T03:24:04.333Z,100.00
2018-04-01T03:26:29.958Z,100.00
2018-04-01T03:28:55.577Z,100.00
2018-04-01T03:31:21.215Z,100.00
2018-04-01T03:33:46.825Z,100.00
2018-04-01T03:36:12.448Z,100.00
2018-04-01T03:38:38.062Z,100.00
2018-04-01T03:41:03.679Z,100.00
2018-04-01T03:43:29.280Z,100.00
2018-04-01T03:45:54.898Z,100.00
2018-04-01T03:48:20.502Z,100.00
2018-04-01T03:50:46.129Z,100.00
2018-04-01T03:53:11.748Z,100.00
2018-04-01T03:55:37.358Z,100.00
2018-04-01T03:58:02.977Z,100.00
2018-04-01T04:00:28.595Z,100.00
2018-04-01T04:02:54.220Z,100.00
2018-04-01T04:05:19.854Z,100.00
2018-04-01T04:07:45.482Z,100.00
2018-04-01T04:10:11.105Z,100.00
2018-04-01T04:12:36.722Z,100.00
2018-04-01T04:15:02.335Z,100.00
2018-04-01T04:17:27.944Z,100.00
2018-04-01T04:19:53.548Z,100.00
2018-04-01T04:22:19.171Z,100.00
2018-04-01T04:24:44.779Z,100.00
2018-04-01T04:27:10.406Z,100.00
2018-04-01T04:29:36.013Z,100.00
2018-04-01T04:32:01.629Z,100.00
2018-04-01T04:34:27.241Z,100.00
2018-04-01T04:36:52.859Z,100.00
2018-04-01T04:39:18.466Z,100.00
2018-04-01T04:41:44.078Z,100.00
2018-04-01T04:44:09.694Z,100.00
2018-04-01T04:46:35.325Z,100.00
2018-04-01T04:49:00.936Z,100.00
2018-04-01T04:51:26.557Z,100.00
2018-04-01T04:53:52.170Z,100.00
2018-04-01T04:56:17.803Z,100.00
2018-04-01T04:58:43.426Z,100.00
2018-04-01T05:01:09.024Z,100.00
2018-04-01T05:03:34.641Z,100.00
2018-04-01T05:06:00.244Z,100.00
2018-04-01T05:08:25.880Z,100.00
2018-04-01T05:10:51.479Z,100.00
2018-04-01T05:13:17.098Z,100.00
2018-04-01T05:15:42.702Z,100.00
2018-04-01T05:18:08.317Z,100.00
2018-04-01T05:20:33.920Z,100.00
2018-04-01T05:22:59.545Z,100.00
2018-04-01T05:25:25.157Z,100.00
2018-04-01T05:27:50.774Z,100.00
2018-04-01T05:30:16.374Z,100.00
2018-04-01T05:32:41.988Z,100.00
2018-04-01T05:35:07.618Z,100.00
2018-04-01T05:37:33.236Z,100.00
2018-04-01T05:39:58.844Z,100.00
2018-04-01T05:42:24.462Z,100.00
2018-04-01T05:44:50.086Z,100.00
2018-04-01T05:47:15.697Z,100.00
2018-04-01T05:49:41.332Z,100.00
2018-04-01T05:52:06.947Z,100.00
2018-04-01T05:54:32.571Z,100.00
2018-04-01T05:56:58.182Z,100.00
2018-04-01T05:59:23.806Z,100.00
2018-04-01T06:01:49.413Z,100.00
2018-04-01T06:04:15.027Z,100.00
2018-04-01T06:06:40.629Z,100.00
2018-04-01T06:09:06.249Z,100.00
2018-04-01T06:11:31.864Z,100.00
2018-04-01T06:13:57.475Z,100.00
2018-04-01T06:16:23.089Z,100.00
2018-04-01T06:18:48.689Z,100.00
2018-04-01T06:21:14.303Z,100.00
2018-04-01T06:23:39.908Z,100.00
2018-04-01T06:26:05.514Z,100.00
2018-04-01T06:28:31.122Z,100.00
2018-04-01T06:30:56.745Z,100.00
2018-04-01T06:33:22.375Z,100.00
2018-04-01T06:35:47.998Z,100.00
2018-04-01T06:38:13.617Z,100.00
2018-04-01T06:40:39.232Z,100.00
2018-04-01T06:43:04.848Z,100.00
2018-04-01T06:45:30.470Z,100.00
2018-04-01T06:47:56.074Z,100.00
2018-04-01T06:50:21.706Z,100.00
2018-04-01T06:52:47.327Z,100.00
2018-04-01T06:55:12.954Z,100.00
2018-04-01T06:57:38.584Z,100.00
2018-04-01T07:00:04.218Z,100.00
2018-04-01T07:02:29.885Z,99.86
2018-04-01T07:04:55.445Z,99.94
2018-04-01T07:07:21.054Z,99.73
2018-04-01T07:09:46.658Z,99.77
2018-04-01T07:12:12.310Z,99.82
2018-04-01T07:14:37.894Z,99.65
2018-04-01T07:17:03.514Z,99.93
2018-04-01T07:19:29.140Z,99.76
2018-04-01T07:21:54.762Z,99.73
2018-04-01T07:24:20.383Z,99.34
2018-04-01T07:26:46.009Z,99.47
2018-04-01T07:29:11.618Z,99.45
2018-04-01T07:31:37.230Z,99.74
2018-04-01T07:34:02.839Z,99.64
2018-04-01T07:36:28.457Z,99.93
2018-04-01T07:38:54.067Z,99.90
2018-04-01T07:41:19.685Z,99.94
2018-04-01T07:43:45.294Z,99.91
2018-04-01T07:46:10.927Z,99.88
2018-04-01T07:48:36.538Z,99.55
2018-04-01T07:51:02.201Z,99.78
2018-04-01T07:53:27.766Z,99.57
2018-04-01T07:55:53.374Z,99.30
2018-04-01T07:58:18.993Z,99.16
2018-04-01T08:00:44.601Z,99.31
2018-04-01T08:03:10.228Z,99.34
2018-04-01T08:05:35.843Z,99.36
2018-04-01T08:08:01.477Z,99.44
2018-04-01T08:10:27.958Z,99.52
2018-04-01T08:12:53.654Z,99.68
2018-04-01T08:15:20.090Z,99.79
2018-04-01T08:17:46.672Z,99.76
2018-04-01T08:20:12.356Z,99.61
2018-04-01T08:22:40.044Z,99.54
2018-04-01T08:25:05.721Z,99.69
2018-04-01T08:27:31.346Z,99.44
2018-04-01T08:29:57.627Z,99.38
2018-04-01T08:32:23.239Z,99.36
2018-04-01T08:34:48.850Z,99.39
2018-04-01T08:37:14.464Z,99.67
2018-04-01T08:39:40.085Z,99.30
2018-04-01T08:42:05.714Z,98.97
2018-04-01T08:44:31.329Z,99.11
2018-04-01T08:46:56.944Z,99.06
2018-04-01T08:49:22.566Z,99.42
2018-04-01T08:51:48.190Z,98.77
2018-04-01T08:54:14.459Z,98.78
2018-04-01T08:56:40.803Z,98.68
2018-04-01T08:59:07.779Z,98.54
2018-04-01T09:01:33.867Z,98.62
2018-04-01T09:03:59.519Z,98.38
2018-04-01T09:06:25.137Z,98.65
2018-04-01T09:08:50.775Z,98.90
2018-04-01T09:11:16.382Z,98.61
2018-04-01T09:13:42.070Z,98.37
2018-04-01T09:16:07.699Z,98.43
2018-04-01T09:18:33.326Z,98.63
2018-04-01T09:20:58.941Z,98.03
2018-04-01T09:23:24.953Z,97.75
2018-04-01T09:25:50.597Z,96.39
2018-04-01T09:28:16.206Z,95.58
2018-04-01T09:30:41.864Z,96.37
2018-04-01T09:33:07.511Z,96.60
2018-04-01T09:35:33.137Z,97.42
2018-04-01T09:37:58.746Z,96.96
2018-04-01T09:40:24.365Z,96.65
2018-04-01T09:42:49.979Z,96.82
2018-04-01T09:45:15.601Z,96.57
2018-04-01T09:47:41.215Z,96.91
2018-04-01T09:50:06.839Z,96.61
2018-04-01T09:52:32.459Z,96.69
2018-04-01T09:54:58.086Z,96.63
2018-04-01T09:57:24.274Z,96.48
2018-04-01T09:59:49.885Z,96.71
2018-04-01T10:02:15.620Z,96.36
2018-04-01T10:04:41.406Z,95.80
2018-04-01T10:07:07.126Z,95.97
2018-04-01T10:09:32.871Z,94.65
2018-04-01T10:11:58.598Z,95.58
2018-04-01T10:14:25.690Z,94.73
2018-04-01T10:16:52.518Z,94.11
2018-04-01T10:19:19.308Z,94.92
2018-04-01T10:21:45.053Z,95.13
2018-04-01T10:24:10.782Z,94.67
2018-04-01T10:26:36.512Z,95.00
2018-04-01T10:29:02.250Z,94.31
2018-04-01T10:31:27.994Z,95.00
2018-04-01T10:33:53.710Z,93.42
2018-04-01T10:36:19.453Z,92.73
2018-04-01T10:38:45.178Z,93.94
2018-04-01T10:41:10.910Z,93.18
2018-04-01T10:43:36.698Z,92.94
2018-04-01T10:46:02.450Z,92.43
2018-04-01T10:48:28.174Z,93.56
2018-04-01T10:50:53.945Z,91.89
2018-04-01T10:53:19.699Z,92.66
2018-04-01T10:55:45.322Z,92.41
2018-04-01T10:58:10.928Z,92.52
2018-04-01T11:00:36.553Z,91.40
2018-04-01T11:03:02.156Z,91.85
2018-04-01T11:05:27.780Z,91.96
2018-04-01T11:07:53.393Z,91.46
2018-04-01T11:10:19.009Z,92.91
2018-04-01T11:12:44.626Z,92.55
2018-04-01T11:15:10.256Z,92.27
2018-04-01T11:17:35.874Z,93.24
2018-04-01T11:20:01.493Z,92.58
2018-04-01T11:22:27.116Z,91.79
2018-04-01T11:24:52.733Z,87.86
2018-04-01T11:27:18.340Z,89.40
2018-04-01T11:29:43.945Z,87.64
2018-04-01T11:32:09.557Z,86.39
2018-04-01T11:34:35.182Z,84.75
2018-04-01T11:37:00.815Z,82.87
2018-04-01T11:39:26.414Z,84.50
2018-04-01T11:41:52.042Z,83.07
2018-04-01T11:44:17.662Z,83.15
2018-04-01T11:46:43.296Z,84.35
2018-04-01T11:49:08.899Z,82.61
2018-04-01T11:51:34.522Z,82.43
2018-04-01T11:54:00.139Z,80.23
2018-04-01T11:56:25.773Z,79.77
2018-04-01T11:58:51.386Z,80.88
2018-04-01T12:01:17.009Z,79.42
2018-04-01T12:03:42.646Z,80.04
2018-04-01T12:06:08.246Z,78.95
2018-04-01T12:08:33.882Z,78.36
2018-04-01T12:10:59.489Z,77.21
2018-04-01T12:13:25.105Z,76.83
2018-04-01T12:15:50.726Z,77.12
2018-04-01T12:18:16.385Z,78.63
2018-04-01T12:20:41.977Z,78.23
2018-04-01T12:23:07.602Z,75.58
2018-04-01T12:25:33.217Z,75.87
2018-04-01T12:27:58.830Z,76.93
2018-04-01T12:30:24.434Z,77.38
2018-04-01T12:32:50.052Z,77.48
2018-04-01T12:35:15.652Z,76.07
2018-04-01T12:37:41.265Z,77.12
2018-04-01T12:40:06.878Z,76.88
2018-04-01T12:42:32.495Z,76.30
2018-04-01T12:44:58.108Z,75.73
2018-04-01T12:47:23.719Z,75.23
2018-04-01T12:49:49.350Z,73.54
2018-04-01T12:52:14.977Z,74.35
2018-04-01T12:54:40.603Z,73.75
2018-04-01T12:57:06.214Z,74.85
2018-04-01T12:59:31.842Z,74.01
2018-04-01T13:01:57.452Z,73.80
2018-04-01T13:04:23.065Z,72.00
2018-04-01T13:06:48.671Z,72.60
2018-04-01T13:09:14.305Z,72.41
2018-04-01T13:11:39.909Z,73.70
2018-04-01T13:14:05.534Z,72.54
2018-04-01T13:16:31.151Z,72.22
2018-04-01T13:18:56.775Z,72.14
2018-04-01T13:21:22.387Z,70.02
2018-04-01T13:23:48.010Z,68.42
2018-04-01T13:26:13.618Z,68.60
2018-04-01T13:28:39.246Z,67.80
2018-04-01T13:31:04.854Z,64.90
2018-04-01T13:33:30.473Z,65.26
2018-04-01T13:35:56.078Z,63.75
2018-04-01T13:38:21.686Z,62.85
2018-04-01T13:40:47.294Z,63.43
2018-04-01T13:43:12.908Z,64.17
2018-04-01T13:45:38.518Z,63.75
2018-04-01T13:48:04.147Z,63.29
2018-04-01T13:50:29.771Z,64.36
2018-04-01T13:52:55.389Z,62.40
2018-04-01T13:55:21.009Z,63.80
2018-04-01T13:57:46.634Z,64.94
2018-04-01T14:00:12.254Z,64.76
2018-04-01T14:02:37.885Z,66.33
2018-04-01T14:05:03.514Z,67.20
2018-04-01T14:07:29.135Z,67.87
2018-04-01T14:09:54.758Z,66.83
2018-04-01T14:12:20.371Z,68.19
2018-04-01T14:14:46.002Z,67.03
2018-04-01T14:17:11.609Z,67.71
2018-04-01T14:19:37.217Z,66.68
2018-04-01T14:22:02.835Z,66.90
2018-04-01T14:24:28.461Z,67.54
2018-04-01T14:26:54.073Z,68.23
2018-04-01T14:29:19.698Z,68.26
2018-04-01T14:31:45.314Z,68.85
2018-04-01T14:34:10.931Z,68.82
2018-04-01T14:36:36.534Z,69.21
2018-04-01T14:39:02.140Z,69.93
2018-04-01T14:41:27.757Z,69.51
2018-04-01T14:43:53.393Z,69.68
2018-04-01T14:46:19.027Z,68.55
2018-04-01T14:48:44.640Z,68.84
2018-04-01T14:51:10.279Z,67.97
2018-04-01T14:53:35.901Z,68.64
2018-04-01T14:56:01.551Z,69.19
2018-04-01T14:58:27.138Z,67.69
2018-04-01T15:00:52.770Z,68.50
2018-04-01T15:03:18.374Z,68.42
2018-04-01T15:05:43.986Z,68.09
2018-04-01T15:08:09.591Z,68.81
2018-04-01T15:10:35.219Z,69.31
2018-04-01T15:13:00.837Z,69.64
2018-04-01T15:15:26.459Z,68.90
2018-04-01T15:17:52.063Z,68.97
2018-04-01T15:20:17.679Z,67.90
2018-04-01T15:22:43.291Z,68.67
2018-04-01T15:25:08.902Z,69.79
2018-04-01T15:27:34.546Z,71.34
2018-04-01T15:30:00.162Z,70.28
2018-04-01T15:32:25.790Z,71.21
2018-04-01T15:34:51.397Z,72.24
2018-04-01T15:37:17.035Z,71.30
2018-04-01T15:39:42.644Z,71.94
2018-04-01T15:42:08.275Z,71.86
2018-04-01T15:44:33.886Z,71.69
2018-04-01T15:46:59.506Z,71.92
2018-04-01T15:49:25.122Z,71.43
2018-04-01T15:51:50.760Z,72.04
2018-04-01T15:54:16.374Z,71.42
2018-04-01T15:56:41.990Z,72.17
2018-04-01T15:59:07.610Z,71.24
2018-04-01T16:01:33.250Z,71.07
2018-04-01T16:03:58.874Z,70.88
2018-04-01T16:06:24.501Z,71.40
2018-04-01T16:08:50.118Z,70.79
2018-04-01T16:11:15.741Z,71.06
2018-04-01T16:13:41.361Z,71.06
2018-04-01T16:16:06.982Z,71.37
2018-04-01T16:18:33.401Z,70.10
2018-04-01T16:20:59.031Z,69.35
2018-04-01T16:23:24.646Z,69.83
2018-04-01T16:25:50.259Z,69.84
2018-04-01T16:28:15.877Z,69.84
2018-04-01T16:30:41.505Z,70.45
2018-04-01T16:33:07.125Z,70.57
2018-04-01T16:35:32.745Z,70.00
2018-04-01T16:37:58.377Z,70.08
2018-04-01T16:40:24.002Z,69.82
2018-04-01T16:42:49.630Z,69.98
2018-04-01T16:45:15.238Z,68.95
2018-04-01T16:47:40.856Z,68.54
2018-04-01T16:50:06.466Z,67.33
2018-04-01T16:52:32.109Z,67.57
2018-04-01T16:54:57.715Z,67.29
2018-04-01T16:57:23.338Z,67.56
2018-04-01T16:59:48.950Z,68.07
2018-04-01T17:02:14.591Z,67.96
2018-04-01T17:04:40.206Z,68.81
2018-04-01T17:07:05.853Z,68.30
2018-04-01T17:09:31.578Z,67.57
2018-04-01T17:11:57.077Z,68.00
2018-04-01T17:14:22.698Z,68.55
2018-04-01T17:16:48.323Z,69.06
2018-04-01T17:19:13.954Z,69.23
2018-04-01T17:21:39.558Z,69.73
2018-04-01T17:24:05.195Z,70.29
2018-04-01T17:26:30.804Z,70.00
2018-04-01T17:28:56.434Z,70.17
2018-04-01T17:31:22.054Z,70.85
2018-04-01T17:33:47.674Z,71.45
2018-04-01T17:36:13.294Z,71.44
2018-04-01T17:38:38.910Z,71.93
2018-04-01T17:41:04.512Z,72.31
2018-04-01T17:43:30.125Z,72.43
2018-04-01T17:45:55.750Z,73.58
2018-04-01T17:48:21.367Z,73.71
2018-04-01T17:50:46.986Z,73.65
2018-04-01T17:53:12.605Z,74.43
2018-04-01T17:55:38.220Z,74.77
2018-04-01T17:58:03.846Z,75.03
2018-04-01T18:00:29.474Z,75.42
2018-04-01T18:02:55.113Z,76.00
2018-04-01T18:05:20.731Z,75.91
2018-04-01T18:07:46.350Z,76.56
2018-04-01T18:10:11.970Z,76.82
2018-04-01T18:12:37.594Z,77.17
2018-04-01T18:15:03.221Z,77.66
2018-04-01T18:17:28.831Z,77.74
2018-04-01T18:19:54.454Z,77.38
2018-04-01T18:22:20.066Z,77.55
2018-04-01T18:24:45.718Z,77.74
2018-04-01T18:27:11.329Z,78.17
2018-04-01T18:29:36.952Z,78.48
2018-04-01T18:32:02.599Z,78.31
2018-04-01T18:34:29.527Z,78.85
2018-04-01T18:36:55.253Z,78.71
2018-04-01T18:39:20.873Z,79.31
2018-04-01T18:41:46.477Z,79.81
2018-04-01T18:44:12.102Z,79.87
2018-04-01T18:46:37.705Z,79.73
2018-04-01T18:49:03.335Z,80.40
2018-04-01T18:51:28.960Z,80.85
2018-04-01T18:53:54.572Z,81.08
2018-04-01T18:56:20.194Z,81.31
2018-04-01T18:58:45.816Z,81.61
2018-04-01T19:01:11.436Z,81.80
2018-04-01T19:03:37.077Z,82.00
2018-04-01T19:06:02.698Z,82.13
2018-04-01T19:08:28.467Z,82.24
2018-04-01T19:10:54.088Z,82.50
2018-04-01T19:13:19.706Z,82.55
2018-04-01T19:15:45.357Z,82.75
2018-04-01T19:18:11.118Z,82.83
2018-04-01T19:20:36.853Z,82.97
2018-04-01T19:23:02.596Z,83.56
2018-04-01T19:25:28.354Z,83.56
2018-04-01T19:27:54.102Z,83.96
2018-04-01T19:30:19.846Z,84.06
2018-04-01T19:32:45.589Z,84.07
2018-04-01T19:35:11.332Z,84.11
2018-04-01T19:37:37.076Z,83.84
2018-04-01T19:40:02.897Z,84.16
2018-04-01T19:42:28.683Z,84.06
2018-04-01T19:44:54.431Z,84.11
2018-04-01T19:47:20.165Z,84.19
2018-04-01T19:49:45.912Z,84.55
2018-04-01T19:52:11.666Z,84.54
2018-04-01T19:54:37.413Z,84.39
2018-04-01T19:57:03.169Z,84.55
2018-04-01T19:59:28.902Z,84.81
2018-04-01T20:01:54.648Z,84.99
2018-04-01T20:04:20.395Z,84.91
2018-04-01T20:06:46.173Z,84.93
2018-04-01T20:09:11.896Z,85.19
2018-04-01T20:11:37.638Z,85.28
2018-04-01T20:14:03.422Z,85.76
2018-04-01T20:16:29.113Z,85.78
2018-04-01T20:18:54.866Z,85.93
2018-04-01T20:21:20.621Z,85.81
2018-04-01T20:26:18.909Z,85.94
2018-04-01T20:28:44.648Z,85.88
2018-04-01T20:31:10.402Z,86.14
2018-04-01T20:33:36.149Z,86.11
2018-04-01T20:36:02.130Z,86.17
2018-04-01T20:38:27.864Z,85.98
2018-04-01T20:40:53.602Z,85.97
2018-04-01T20:43:19.349Z,86.01
2018-04-01T20:45:45.103Z,86.11
2018-04-01T20:48:10.870Z,86.10
2018-04-01T20:50:36.609Z,86.10
2018-04-01T20:53:02.366Z,85.95
2018-04-01T20:55:28.259Z,86.22
2018-04-01T20:57:54.001Z,86.41
2018-04-01T21:00:19.762Z,86.48
2018-04-01T21:02:45.512Z,86.55
2018-04-01T21:05:11.243Z,86.62
2018-04-01T21:07:36.987Z,86.37
2018-04-01T21:10:02.725Z,86.46
2018-04-01T21:12:28.482Z,86.47
2018-04-01T21:14:54.209Z,86.35
2018-04-01T21:17:19.954Z,86.24
2018-04-01T21:19:45.688Z,86.57
2018-04-01T21:22:11.429Z,86.42
2018-04-01T21:24:37.146Z,86.52
2018-04-01T21:27:02.887Z,86.48
2018-04-01T21:29:28.671Z,86.87
2018-04-01T21:31:54.349Z,86.90
2018-04-01T21:34:20.091Z,86.86
2018-04-01T21:36:45.831Z,86.72
2018-04-01T21:39:11.592Z,86.77
2018-04-01T21:41:37.326Z,86.51
2018-04-01T21:44:03.076Z,86.47
2018-04-01T21:46:28.812Z,86.90
2018-04-01T21:48:54.542Z,86.62
2018-04-01T21:51:20.302Z,86.87
2018-04-01T21:53:46.060Z,87.15
2018-04-01T21:56:11.796Z,87.23
2018-04-01T21:58:37.541Z,87.17
2018-04-01T22:01:03.389Z,86.91
2018-04-01T22:03:29.133Z,87.30
2018-04-01T22:05:54.877Z,87.52
2018-04-01T22:08:20.634Z,87.65
2018-04-01T22:10:46.382Z,88.00
2018-04-01T22:13:12.137Z,87.81
2018-04-01T22:15:37.868Z,87.91
2018-04-01T22:18:03.699Z,87.95
2018-04-01T22:20:29.433Z,88.09
2018-04-01T22:23:07.554Z,88.03
2018-04-01T22:25:33.306Z,87.93
2018-04-01T22:27:59.059Z,87.99
2018-04-01T22:30:24.830Z,88.06
2018-04-01T22:32:50.577Z,88.14
2018-04-01T22:35:16.330Z,88.32
2018-04-01T22:37:42.074Z,87.84
2018-04-01T22:40:07.810Z,87.88
2018-04-01T22:42:33.543Z,88.24
2018-04-01T22:44:59.286Z,88.14
2018-04-01T22:47:25.026Z,88.16
2018-04-01T22:49:50.778Z,88.08
2018-04-01T22:52:16.538Z,88.03
2018-04-01T22:54:42.278Z,87.98
2018-04-01T22:57:08.026Z,88.15
2018-04-01T22:59:33.785Z,88.27
2018-04-01T23:01:59.526Z,88.43
2018-04-01T23:04:32.214Z,88.58
2018-04-01T23:06:57.950Z,88.74
2018-04-01T23:09:23.702Z,88.30
2018-04-01T23:11:49.480Z,88.28
2018-04-01T23:14:15.290Z,88.27
2018-04-01T23:16:41.025Z,88.56
2018-04-01T23:19:06.777Z,88.58
2018-04-01T23:21:32.516Z,88.74
2018-04-01T23:23:58.261Z,88.80
2018-04-01T23:26:24.010Z,88.53
2018-04-01T23:28:49.747Z,88.90
2018-04-01T23:31:15.498Z,88.92
2018-04-01T23:33:41.254Z,89.03
2018-04-01T23:36:06.998Z,88.87
2018-04-01T23:38:32.740Z,89.38
2018-04-01T23:40:58.518Z,89.34
2018-04-01T23:43:24.266Z,89.45
2018-04-01T23:45:50.034Z,89.60
2018-04-01T23:48:15.786Z,89.64
2018-04-01T23:50:41.540Z,89.81
2018-04-01T23:53:07.293Z,89.75
2018-04-01T23:55:33.042Z,89.73
2018-04-01T23:57:58.785Z,89.95
